createdAt,value
2022-08-07T00:00:41.566Z,7.72
2022-08-07T00:03:11.830Z,6.32
2022-08-07T00:05:51.068Z,5.88
2022-08-07T00:08:32.693Z,6.30
2022-08-07T00:11:00.227Z,6.97
2022-08-07T00:13:29.427Z,6.43
2022-08-07T00:16:17.415Z,6.00
2022-08-07T00:18:48.773Z,6.40
2022-08-07T00:21:57.335Z,7.40
2022-08-07T00:24:04.234Z,6.20
2022-08-07T00:26:58.864Z,6.38
2022-08-07T00:29:33.910Z,6.85
2022-08-07T00:32:07.199Z,6.45
2022-08-07T00:34:50.715Z,6.00
2022-08-07T00:37:29.432Z,6.45
2022-08-07T00:40:39.638Z,6.82
2022-08-07T00:44:00.948Z,6.57
2022-08-07T00:46:08.028Z,6.32
2022-08-07T00:48:36.254Z,6.13
2022-08-07T00:51:10.998Z,6.47
2022-08-07T00:53:50.640Z,6.60
2022-08-07T00:56:30.175Z,6.65
2022-08-07T00:59:02.096Z,6.45
2022-08-07T01:01:29.831Z,6.43
2022-08-07T01:04:12.474Z,6.70
2022-08-07T01:06:56.400Z,6.85
2022-08-07T01:10:04.969Z,6.60
2022-08-07T01:12:29.690Z,6.45
2022-08-07T01:15:11.791Z,7.07
2022-08-07T01:17:45.188Z,6.65
2022-08-07T01:20:33.548Z,6.57
2022-08-07T01:23:12.931Z,6.60
2022-08-07T01:26:05.562Z,7.03
2022-08-07T01:28:35.093Z,7.20
2022-08-07T01:31:04.894Z,6.95
2022-08-07T01:33:55.645Z,7.20
2022-08-07T01:36:33.455Z,7.53
2022-08-07T01:39:10.144Z,7.95
2022-08-07T01:41:55.045Z,6.97
2022-08-07T01:44:35.502Z,7.63
2022-08-07T01:47:14.521Z,7.75
2022-08-07T01:50:02.034Z,6.95
2022-08-07T01:52:33.299Z,7.20
2022-08-07T01:55:04.070Z,7.40
2022-08-07T01:58:06.070Z,7.07
2022-08-07T02:00:29.709Z,6.60
2022-08-07T02:03:21.209Z,6.85
2022-08-07T02:06:31.577Z,7.18
2022-08-07T02:09:04.618Z,7.20
2022-08-07T02:12:03.287Z,6.78
2022-08-07T02:14:35.961Z,6.28
2022-08-07T02:17:26.446Z,6.38
2022-08-07T02:20:04.685Z,6.93
2022-08-07T02:22:39.620Z,6.88
2022-08-07T02:26:10.225Z,6.90
2022-08-07T02:28:27.007Z,6.70
2022-08-07T02:30:57.832Z,6.38
2022-08-07T02:33:32.752Z,6.68
2022-08-07T02:36:30.820Z,7.60
2022-08-07T02:39:16.616Z,6.82
2022-08-07T02:41:47.478Z,7.35
2022-08-07T02:44:27.725Z,7.97
2022-08-07T02:47:05.682Z,7.50
2022-08-07T02:49:59.007Z,6.97
2022-08-07T02:53:03.560Z,7.10
2022-08-07T02:56:04.137Z,6.88
2022-08-07T02:58:27.294Z,7.00
2022-08-07T03:01:19.029Z,7.05
2022-08-07T03:04:12.475Z,7.25
2022-08-07T03:06:49.034Z,6.72
2022-08-07T03:09:44.659Z,7.03
2022-08-07T03:12:11.619Z,7.13
2022-08-07T03:14:54.248Z,6.72
2022-08-07T03:17:26.203Z,7.30
2022-08-07T03:19:59.062Z,6.90
2022-08-07T03:22:31.480Z,6.78
2022-08-07T03:25:10.311Z,6.75
2022-08-07T03:27:59.285Z,5.95
2022-08-07T03:30:43.320Z,6.57
2022-08-07T03:33:14.484Z,6.30
2022-08-07T03:35:50.173Z,5.85
2022-08-07T03:38:20.947Z,6.03
2022-08-07T03:40:57.835Z,5.80
2022-08-07T03:43:32.941Z,5.90
2022-08-07T03:46:10.624Z,6.22
2022-08-07T03:49:02.675Z,6.03
2022-08-07T03:51:47.389Z,5.88
2022-08-07T03:54:35.886Z,6.45
2022-08-07T03:58:33.772Z,6.03
2022-08-07T04:00:30.457Z,5.88
2022-08-07T04:03:04.257Z,5.80
2022-08-07T04:05:40.665Z,5.70
2022-08-07T04:08:18.191Z,5.75
2022-08-07T04:10:53.821Z,6.00
2022-08-07T04:14:10.607Z,5.97
2022-08-07T04:16:37.613Z,5.43
2022-08-07T04:19:16.560Z,5.53
2022-08-07T04:21:59.055Z,5.00
2022-08-07T04:24:41.163Z,5.20
2022-08-07T04:27:20.757Z,5.00
2022-08-07T04:30:02.433Z,5.05
2022-08-07T04:32:39.489Z,5.30
2022-08-07T04:35:25.287Z,5.00
2022-08-07T04:38:07.642Z,5.43
2022-08-07T04:40:51.356Z,4.85
2022-08-07T04:44:12.865Z,5.25
2022-08-07T04:46:34.766Z,5.30
2022-08-07T04:49:28.280Z,4.63
2022-08-07T04:52:27.510Z,4.60
2022-08-07T04:58:10.440Z,4.40
2022-08-07T04:58:38.905Z,4.55
2022-08-07T05:01:38.198Z,3.88
2022-08-07T05:04:50.378Z,3.83
2022-08-07T05:07:48.120Z,3.95
2022-08-07T05:10:37.874Z,3.75
2022-08-07T05:14:54.299Z,3.35
2022-08-07T05:16:23.152Z,3.88
2022-08-07T05:18:59.293Z,3.63
2022-08-07T05:21:59.813Z,3.38
2022-08-07T05:24:24.609Z,3.45
2022-08-07T05:26:59.673Z,3.72
2022-08-07T05:29:39.037Z,3.58
2022-08-07T05:32:21.311Z,3.88
2022-08-07T05:35:00.038Z,3.50
2022-08-07T05:37:32.306Z,3.50
2022-08-07T05:40:17.724Z,3.75
2022-08-07T05:42:56.013Z,3.38
2022-08-07T05:45:47.346Z,3.50
2022-08-07T05:48:15.596Z,3.63
2022-08-07T05:50:43.872Z,3.00
2022-08-07T05:54:09.345Z,3.58
2022-08-07T05:56:05.867Z,3.65
2022-08-07T05:58:37.711Z,3.72
2022-08-07T06:01:11.355Z,3.40
2022-08-07T06:03:53.398Z,3.50
2022-08-07T06:06:32.186Z,3.38
2022-08-07T06:09:15.645Z,3.70
2022-08-07T06:11:43.109Z,3.50
2022-08-07T06:14:11.499Z,3.53
2022-08-07T06:16:50.151Z,3.60
2022-08-07T06:19:52.391Z,3.30
2022-08-07T06:22:14.498Z,3.80
2022-08-07T06:25:01.013Z,3.08
2022-08-07T06:28:00.481Z,3.80
2022-08-07T06:30:31.783Z,3.22
2022-08-07T06:33:15.740Z,3.15
2022-08-07T06:35:47.646Z,3.75
2022-08-07T06:38:32.375Z,3.58
2022-08-07T06:41:02.396Z,3.88
2022-08-07T06:43:39.878Z,3.63
2022-08-07T06:46:14.525Z,3.30
2022-08-07T06:48:48.717Z,3.40
2022-08-07T06:51:31.213Z,3.53
2022-08-07T06:55:31.420Z,3.35
2022-08-07T06:56:55.853Z,3.28
2022-08-07T07:00:14.775Z,3.30
2022-08-07T07:02:53.321Z,3.30
2022-08-07T07:05:13.641Z,3.10
2022-08-07T07:08:06.727Z,3.20
2022-08-07T07:10:36.956Z,3.42
2022-08-07T07:13:55.507Z,3.05
2022-08-07T07:16:22.236Z,3.08
2022-08-07T07:18:57.564Z,3.25
2022-08-07T07:21:40.389Z,3.33
2022-08-07T07:24:17.754Z,2.85
2022-08-07T07:26:52.086Z,3.00
2022-08-07T07:29:39.812Z,2.95
2022-08-07T07:32:15.221Z,3.38
2022-08-07T07:34:49.784Z,2.55
2022-08-07T07:37:45.377Z,3.28
2022-08-07T07:40:15.295Z,3.05
2022-08-07T07:42:55.486Z,2.85
2022-08-07T07:46:39.905Z,2.85
2022-08-07T07:48:34.761Z,2.70
2022-08-07T07:51:07.863Z,2.90
2022-08-07T07:53:51.256Z,3.13
2022-08-07T07:56:30.335Z,3.03
2022-08-07T07:59:01.670Z,2.83
2022-08-07T08:02:04.061Z,2.90
2022-08-07T08:04:20.500Z,3.05
2022-08-07T08:06:55.142Z,2.53
2022-08-07T08:09:29.598Z,2.42
2022-08-07T08:14:34.193Z,1.92
2022-08-07T08:17:41.194Z,1.73
2022-08-07T08:20:17.914Z,1.83
2022-08-07T08:23:08.222Z,1.92
2022-08-07T08:26:06.940Z,1.80
2022-08-07T08:28:39.209Z,1.55
2022-08-07T08:31:29.893Z,1.73
2022-08-07T08:34:12.394Z,1.73
2022-08-07T08:36:58.381Z,1.80
2022-08-07T08:39:38.961Z,1.77
2022-08-07T08:42:20.589Z,1.30
2022-08-07T08:45:13.298Z,1.20
2022-08-07T08:47:52.656Z,0.95
2022-08-07T08:50:39.819Z,1.15
2022-08-07T08:53:29.289Z,1.33
2022-08-07T08:56:02.705Z,0.90
2022-08-07T08:58:46.093Z,0.85
2022-08-07T09:01:44.194Z,0.88
2022-08-07T09:04:36.841Z,0.88
2022-08-07T09:07:14.572Z,0.85
2022-08-07T09:10:11.963Z,1.20
2022-08-07T09:13:07.133Z,0.80
2022-08-07T09:16:25.844Z,0.73
2022-08-07T09:19:03.448Z,0.70
2022-08-07T09:22:22.636Z,0.70
2022-08-07T09:25:17.971Z,0.73
2022-08-07T09:28:04.288Z,0.70
2022-08-07T09:33:52.800Z,1.00
2022-08-07T09:36:35.371Z,0.85
2022-08-07T09:39:54.695Z,0.85
2022-08-07T09:42:38.229Z,1.00
2022-08-07T09:47:23.619Z,0.80
2022-08-07T09:49:59.444Z,0.77
2022-08-07T09:52:33.306Z,0.80
2022-08-07T09:55:29.063Z,0.85
2022-08-07T09:58:13.066Z,1.23
2022-08-07T10:00:56.520Z,0.70
2022-08-07T10:04:05.660Z,0.80
2022-08-07T10:07:39.887Z,0.60
2022-08-07T10:10:21.448Z,0.77
2022-08-07T10:13:54.824Z,1.20
2022-08-07T10:16:45.245Z,0.80
2022-08-07T10:19:31.188Z,0.68
2022-08-07T10:22:36.627Z,0.75
2022-08-07T10:25:24.508Z,0.80
2022-08-07T10:28:41.574Z,0.98
2022-08-07T10:31:45.284Z,0.80
2022-08-07T10:34:27.385Z,0.68
2022-08-07T10:38:00.161Z,0.85
2022-08-07T10:40:42.197Z,0.75
2022-08-07T10:43:35.498Z,0.60
2022-08-07T10:46:13.246Z,0.80
2022-08-07T10:48:49.140Z,0.70
2022-08-07T10:51:39.609Z,0.90
2022-08-07T10:54:19.939Z,0.53
2022-08-07T10:57:15.709Z,0.70
2022-08-07T11:00:39.522Z,1.00
2022-08-07T11:03:12.744Z,0.70
2022-08-07T11:05:53.055Z,1.25
2022-08-07T11:09:00.410Z,0.95
2022-08-07T11:11:40.204Z,0.70
2022-08-07T11:14:45.763Z,0.85
2022-08-07T11:17:45.189Z,1.00
2022-08-07T11:20:25.527Z,0.75
2022-08-07T11:23:03.020Z,1.00
2022-08-07T11:26:07.527Z,1.15
2022-08-07T11:28:56.765Z,0.82
2022-08-07T11:31:37.764Z,0.70
2022-08-07T11:34:22.349Z,0.70
2022-08-07T11:37:11.828Z,0.90
2022-08-07T11:40:05.016Z,0.80
2022-08-07T11:43:05.935Z,0.60
2022-08-07T11:45:40.586Z,0.60
2022-08-07T11:48:30.170Z,0.80
2022-08-07T11:51:40.815Z,0.93
2022-08-07T11:54:26.495Z,0.70
2022-08-07T11:57:59.686Z,0.63
2022-08-07T12:01:02.134Z,0.70
2022-08-07T12:04:01.737Z,0.77
2022-08-07T12:07:00.418Z,0.70
2022-08-07T12:10:15.589Z,0.80
2022-08-07T12:12:55.665Z,0.60
2022-08-07T12:16:06.018Z,0.70
2022-08-07T12:18:45.261Z,0.80
2022-08-07T12:21:55.869Z,0.85
2022-08-07T12:25:08.051Z,0.80
2022-08-07T12:28:09.688Z,1.98
2022-08-07T12:30:46.803Z,1.10
2022-08-07T12:33:28.470Z,0.60
2022-08-07T12:36:02.316Z,1.83
2022-08-07T12:38:42.513Z,0.70
2022-08-07T12:41:15.318Z,1.00
2022-08-07T12:44:02.110Z,1.08
2022-08-07T12:47:03.288Z,0.80
2022-08-07T12:49:48.683Z,0.90
2022-08-07T12:52:34.166Z,0.77
2022-08-07T12:55:18.333Z,0.85
2022-08-07T12:58:00.954Z,0.90
2022-08-07T13:01:07.841Z,0.70
2022-08-07T13:04:03.092Z,1.00
2022-08-07T13:08:12.555Z,1.00
2022-08-07T13:10:52.294Z,0.80
2022-08-07T13:14:06.387Z,0.80
2022-08-07T13:17:18.291Z,0.95
2022-08-07T13:20:13.011Z,0.60
2022-08-07T13:22:53.363Z,0.90
2022-08-07T13:25:32.421Z,0.70
2022-08-07T13:28:14.312Z,0.60
2022-08-07T13:31:01.598Z,0.90
2022-08-07T13:36:39.654Z,0.90
2022-08-07T13:39:28.431Z,0.60
2022-08-07T13:42:21.659Z,0.70
2022-08-07T13:46:06.714Z,0.93
2022-08-07T13:48:27.356Z,0.70
2022-08-07T13:51:27.774Z,0.90
2022-08-07T13:54:01.771Z,0.75
2022-08-07T13:56:51.747Z,0.98
2022-08-07T13:59:35.578Z,0.98
2022-08-07T14:02:49.533Z,1.05
2022-08-07T14:08:01.555Z,0.80
2022-08-07T14:10:42.473Z,0.80
2022-08-07T14:13:16.825Z,0.80
2022-08-07T14:16:03.882Z,0.70
2022-08-07T14:18:44.861Z,0.90
2022-08-07T14:22:02.853Z,0.50
2022-08-07T14:24:33.502Z,0.93
2022-08-07T14:28:09.662Z,0.63
2022-08-07T14:30:07.714Z,0.73
2022-08-07T14:32:55.274Z,0.75
2022-08-07T14:35:45.348Z,0.73
2022-08-07T14:38:26.780Z,0.70
2022-08-07T14:41:17.560Z,1.05
2022-08-07T14:44:11.560Z,0.60
2022-08-07T14:52:50.565Z,0.82
2022-08-07T14:55:27.931Z,0.60
2022-08-07T14:58:00.679Z,0.60
2022-08-07T15:00:35.051Z,0.80
2022-08-07T15:03:18.888Z,0.73
2022-08-07T15:13:06.525Z,0.80
2022-08-07T15:14:31.076Z,0.80
2022-08-07T15:17:04.581Z,0.98
2022-08-07T15:22:33.407Z,0.80
2022-08-07T15:25:18.088Z,0.90
2022-08-07T15:28:14.128Z,0.80
2022-08-07T15:31:04.722Z,0.90
2022-08-07T15:33:36.749Z,1.00
2022-08-07T15:36:08.362Z,1.30
2022-08-07T15:38:51.337Z,0.82
2022-08-07T15:42:44.417Z,2.13
2022-08-07T15:44:23.617Z,1.25
2022-08-07T15:47:08.753Z,1.25
2022-08-07T15:50:03.687Z,1.02
2022-08-07T15:53:03.031Z,0.93
2022-08-07T15:56:02.080Z,0.80
2022-08-07T15:58:52.200Z,0.75
2022-08-07T16:01:40.634Z,0.90
2022-08-07T16:04:15.623Z,1.10
2022-08-07T16:07:04.814Z,0.90
2022-08-07T16:09:53.513Z,1.00
2022-08-07T16:13:04.740Z,1.20
2022-08-07T16:15:57.294Z,0.82
2022-08-07T16:18:51.065Z,0.90
2022-08-07T16:22:02.480Z,1.00
2022-08-07T16:27:19.471Z,1.00
2022-08-07T16:30:30.411Z,1.10
2022-08-07T16:34:02.601Z,1.10
2022-08-07T16:36:31.351Z,1.17
2022-08-07T16:39:40.683Z,1.05
2022-08-07T16:42:34.833Z,1.20
2022-08-07T16:46:40.441Z,1.10
2022-08-07T16:48:41.410Z,0.90
2022-08-07T16:52:51.251Z,1.20
2022-08-07T16:55:08.152Z,1.02
2022-08-07T16:58:33.642Z,1.07
2022-08-07T17:04:10.261Z,1.10
2022-08-07T17:07:04.081Z,1.00
2022-08-07T17:10:07.007Z,1.15
2022-08-07T17:12:52.972Z,1.10
2022-08-07T17:16:02.594Z,1.00
2022-08-07T17:18:38.814Z,1.38
2022-08-07T17:21:22.785Z,1.15
2022-08-07T17:24:40.208Z,1.17
2022-08-07T17:27:32.774Z,1.10
2022-08-07T17:30:14.011Z,1.20
2022-08-07T17:34:09.814Z,1.42
2022-08-07T17:36:32.974Z,1.17
2022-08-07T17:39:58.206Z,1.08
2022-08-07T17:42:59.383Z,1.33
2022-08-07T17:48:30.999Z,1.20
2022-08-07T17:51:21.572Z,1.33
2022-08-07T17:54:14.298Z,1.17
2022-08-07T17:57:56.197Z,1.25
2022-08-07T18:00:34.462Z,1.15
2022-08-07T18:04:03.655Z,1.35
2022-08-07T18:06:36.872Z,1.30
2022-08-07T18:09:10.266Z,1.50
2022-08-07T18:12:28.671Z,1.20
2022-08-07T18:15:12.411Z,1.33
2022-08-07T18:18:46.849Z,1.40
2022-08-07T18:21:51.453Z,1.40
2022-08-07T18:24:33.862Z,1.58
2022-08-07T18:27:23.610Z,1.42
2022-08-07T18:30:32.998Z,1.40
2022-08-07T18:33:15.226Z,1.70
2022-08-07T18:36:08.030Z,2.10
2022-08-07T18:40:06.518Z,1.50
2022-08-07T18:42:21.507Z,1.90
2022-08-07T18:45:42.928Z,1.70
2022-08-07T18:50:05.311Z,1.88
2022-08-07T18:52:34.674Z,1.77
2022-08-07T18:55:40.698Z,1.90
2022-08-07T18:58:26.298Z,1.83
2022-08-07T19:02:19.190Z,1.88
2022-08-07T19:04:59.619Z,1.80
2022-08-07T19:07:51.707Z,1.90
2022-08-07T19:10:51.467Z,2.40
2022-08-07T19:13:40.523Z,2.00
2022-08-07T19:17:01.278Z,1.90
2022-08-07T19:19:50.823Z,2.08
2022-08-07T19:22:34.690Z,2.13
2022-08-07T19:25:06.403Z,2.00
2022-08-07T19:28:56.655Z,2.65
2022-08-07T19:31:03.180Z,9.40
2022-08-07T19:33:33.309Z,5.40
2022-08-07T19:36:08.823Z,3.55
2022-08-07T19:38:52.522Z,3.10
2022-08-07T19:41:39.166Z,2.42
2022-08-07T19:44:34.678Z,2.63
2022-08-07T19:47:07.467Z,2.60
2022-08-07T19:49:57.193Z,2.50
2022-08-07T19:52:31.818Z,2.80
2022-08-07T19:58:02.927Z,2.50
2022-08-07T20:00:34.741Z,2.90
2022-08-07T20:03:34.976Z,3.90
2022-08-07T20:06:04.855Z,3.45
2022-08-07T20:08:48.940Z,2.78
2022-08-07T20:12:22.150Z,2.92
2022-08-07T20:14:54.104Z,2.63
2022-08-07T20:17:31.659Z,2.80
2022-08-07T20:20:15.742Z,2.80
2022-08-07T20:22:56.167Z,3.03
2022-08-07T20:25:40.348Z,2.50
2022-08-07T20:28:19.005Z,2.47
2022-08-07T20:30:53.101Z,3.20
2022-08-07T20:33:38.149Z,2.78
2022-08-07T20:36:09.087Z,3.03
2022-08-07T20:38:59.858Z,2.67
2022-08-07T20:41:34.132Z,2.90
2022-08-07T20:44:38.298Z,2.92
2022-08-07T20:47:11.599Z,2.50
2022-08-07T20:49:58.976Z,2.75
2022-08-07T20:52:51.832Z,2.78
2022-08-07T20:55:23.645Z,2.80
2022-08-07T20:58:03.994Z,2.90
2022-08-07T21:00:46.606Z,2.70
2022-08-07T21:03:23.306Z,2.75
2022-08-07T21:06:01.360Z,2.65
2022-08-07T21:09:24.242Z,3.10
2022-08-07T21:11:57.352Z,3.40
2022-08-07T21:14:48.485Z,3.30
2022-08-07T21:18:02.345Z,3.17
2022-08-07T21:20:33.187Z,3.50
2022-08-07T21:23:27.761Z,3.50
2022-08-07T21:26:03.803Z,3.03
2022-08-07T21:28:49.528Z,4.38
2022-08-07T21:32:41.582Z,3.42
2022-08-07T21:35:11.436Z,3.60
2022-08-07T21:38:19.304Z,3.40
2022-08-07T21:41:22.779Z,3.45
2022-08-07T21:44:01.572Z,3.40
2022-08-07T21:46:49.631Z,4.35
2022-08-07T21:49:40.738Z,3.75
2022-08-07T21:53:08.708Z,4.03
2022-08-07T21:56:16.731Z,3.40
2022-08-07T22:00:02.727Z,3.40
2022-08-07T22:02:41.727Z,3.72
2022-08-07T22:05:21.978Z,3.50
2022-08-07T22:08:10.540Z,3.88
2022-08-07T22:10:42.420Z,3.47
2022-08-07T22:13:16.980Z,3.45
2022-08-07T22:16:42.255Z,3.38
2022-08-07T22:19:39.020Z,3.50
2022-08-07T22:22:32.757Z,3.80
2022-08-07T22:25:13.382Z,3.60
2022-08-07T22:28:07.449Z,3.90
2022-08-07T22:31:45.183Z,3.72
2022-08-07T22:34:28.907Z,3.70
2022-08-07T22:37:14.971Z,3.35
2022-08-07T22:40:10.788Z,3.90
2022-08-07T22:42:44.330Z,3.63
2022-08-07T22:46:04.246Z,4.07
2022-08-07T22:48:54.780Z,3.93
2022-08-07T22:51:17.612Z,3.60
2022-08-07T22:54:20.199Z,3.50
2022-08-07T22:57:17.017Z,3.38
2022-08-07T22:59:57.382Z,3.47
2022-08-07T23:03:03.685Z,3.50
2022-08-07T23:06:15.459Z,3.63
2022-08-07T23:10:04.474Z,3.40
2022-08-07T23:12:40.218Z,3.10
2022-08-07T23:16:05.401Z,3.63
2022-08-07T23:19:14.006Z,3.80
2022-08-07T23:22:01.364Z,4.03
2022-08-07T23:24:35.198Z,3.40
2022-08-07T23:27:37.774Z,3.45
2022-08-07T23:30:43.315Z,3.47
2022-08-07T23:34:34.210Z,3.70
2022-08-07T23:36:46.774Z,3.10
2022-08-07T23:39:55.469Z,3.03
2022-08-07T23:43:17.542Z,3.03
2022-08-07T23:46:33.748Z,3.42
2022-08-07T23:49:50.117Z,3.13
2022-08-07T23:55:52.931Z,3.83
2022-08-07T23:58:47.699Z,4.32
